Flight Track Log - Related Links

Times and Time Zones

All times are in EDT time to prevent confusion due to time zone crossing. See the SWA1718 flight status page for this flight to view local times or setup timezone preferences in your user account.

Time Position Orientation Groundspeed Altitude Reporting Facility
EDT Latitude Longitude Course Direction KTS MPH feet Rate Location/Type
Mon 07:40:43 PM 39.9167 -104.6167 78° East 214 246 8,400  Level Denver TRACON
Mon 07:41:43 PM 39.9333 -104.5167 78° East 274 315 9,600 800 Climbing Denver TRACON
Mon 07:42:43 PM 39.9500 -104.4333 75° East 279 321 10,000 400 Climbing Denver TRACON
Mon 07:43:13 PM 39.9494 -104.3742 91° East 294 338 10,200 1,582 Climbing Denver Center
Mon 07:44:14 PM 39.9242 -104.2594 106° East 328 377 12,400 2,000 Climbing Denver Center
Mon 07:45:16 PM 39.9025 -104.1306 102° East 361 415 14,300 2,081 Climbing Denver Center
Mon 07:46:18 PM 39.8819 -103.9836 100° East 383 441 16,700 2,000 Climbing Denver Center
Mon 07:47:19 PM 39.8747 -103.8381 94° East 414 476 18,400 1,659 Climbing Denver Center
Mon 07:48:21 PM 39.8878 -103.6847 84° East 412 474 20,100 1,742 Climbing Denver Center
Mon 07:49:23 PM 39.9072 -103.5272 81° East 433 498 22,000 1,951 Climbing Denver Center
Mon 07:50:24 PM 39.9250 -103.3639 82° East 449 517 24,100 1,756 Climbing Denver Center
Mon 07:51:26 PM 39.9456 -103.1978 81° East 461 531 25,600 1,355 Climbing Denver Center
Mon 07:52:28 PM 39.9653 -103.0236 82° East 478 550 26,900 1,122 Climbing Denver Center
Mon 07:53:29 PM 39.9842 -102.8403 82° East 502 578 27,900 976 Climbing Denver Center
Mon 07:54:31 PM 40.0072 -102.6322 82° East 525 604 28,900 1,065 Climbing Denver Center
Mon 07:55:33 PM 40.0261 -102.4456 82° East 540 621 30,100 1,512 Climbing Denver Center
Mon 07:56:34 PM 40.0467 -102.2278 83° East 542 624 32,000 1,610 Climbing Denver Center
Mon 07:57:36 PM 40.0661 -102.0469 82° East 532 612 33,400 1,452 Climbing Denver Center
Mon 07:58:38 PM 40.0875 -101.8350 82° East 527 606 35,000 780 Climbing Denver Center
Mon 07:59:39 PM 40.1058 -101.6550 82° East 525 604 35,000  Level Denver Center
Mon 08:00:41 PM 40.1250 -101.4414 83° East 531 611 35,000  Level Denver Center
Mon 08:01:43 PM 40.1433 -101.2575 83° East 534 615 35,000  Level Denver Center
Mon 08:02:44 PM 40.1606 -101.0708 83° East 541 623 35,000  Level Denver Center
Mon 08:03:46 PM 40.1808 -100.8542 83° East 542 624 35,000  Level Denver Center
Mon 08:04:48 PM 40.1972 -100.6650 83° East 547 629 35,000  Level Denver Center
Mon 08:05:49 PM 40.2064 -100.4436 87° East 553 636 35,000  Level Denver Center
Mon 08:06:51 PM 40.2092 -100.2536 89° East 550 633 35,000  Level Denver Center
Mon 08:07:53 PM 40.2122 -100.0331 89° East 546 628 35,000  Level Denver Center
Mon 08:08:54 PM 40.2147 -99.8461 89° East 546 628 35,000  Level Denver Center
Mon 08:09:56 PM 40.2169 -99.6503 89° East 541 623 35,000  Level Denver Center
Mon 08:10:58 PM 40.2183 -99.4525 89° East 544 626 35,000  Level Denver Center
Mon 08:12:00 PM 40.2197 -99.2167 89° East 544 626 35,000  Level Denver Center
Mon 08:13:01 PM 40.2217 -99.0194 89° East 544 626 35,000  Level Denver Center
Mon 08:14:03 PM 40.2219 -98.8236 90° East 543 625 35,000  Level Denver Center
Mon 08:14:21 PM 40.2225 -98.7850 89° East 544 626 35,000  Level Minneapolis Center
Mon 08:15:22 PM 40.2219 -98.5492 90° East 543 625 35,000  Level Minneapolis Center
Mon 08:16:24 PM 40.2231 -98.3556 90° East 538 619 35,000  Level Minneapolis Center
Mon 08:17:26 PM 40.2222 -98.1606 90° East 538 619 35,000  Level Minneapolis Center
Mon 08:18:28 PM 40.2214 -97.9669 90° East 535 616 35,000  Level Minneapolis Center
Mon 08:19:30 PM 40.2206 -97.7753 90° East 531 611 35,000  Level Minneapolis Center
Mon 08:20:32 PM 40.2181 -97.5811 91° East 534 615 35,000  Level Minneapolis Center
Mon 08:21:33 PM 40.2172 -97.3872 90° East 535 616 35,000  Level Minneapolis Center
Mon 08:22:35 PM 40.2156 -97.1714 91° East 535 616 35,000  Level Minneapolis Center
Mon 08:23:37 PM 40.2139 -96.9789 91° East 533 613 35,000  Level Minneapolis Center
Mon 08:24:39 PM 40.2417 -96.7972 79° East 515 593 35,000  Level Minneapolis Center
Mon 08:25:41 PM 40.2711 -96.6144 78° East 515 593 35,000  Level Minneapolis Center
Mon 08:26:43 PM 40.3056 -96.3944 78° East 516 594 35,000  Level Minneapolis Center
Mon 08:27:44 PM 40.3339 -96.2131 78° East 514 592 35,000  Level Minneapolis Center
Mon 08:28:46 PM 40.3625 -96.0322 78° East 510 587 35,000  Level Minneapolis Center
Mon 08:29:48 PM 40.3886 -95.8486 79° East 514 592 35,000  Level Minneapolis Center
Mon 08:30:50 PM 40.4178 -95.6672 78° East 512 589 35,000  Level Minneapolis Center
Mon 08:31:51 PM 40.4442 -95.4856 79° East 510 587 35,000  Level Minneapolis Center
Mon 08:32:53 PM 40.4761 -95.2692 79° East 507 583 35,000  Level Minneapolis Center
Mon 08:33:55 PM 40.5033 -95.0883 79° East 507 583 35,000  Level Minneapolis Center
Mon 08:34:57 PM 40.5297 -94.9078 79° East 506 582 35,000  Level Minneapolis Center
Mon 08:35:59 PM 40.5550 -94.7272 80° East 505 581 35,000  Level Minneapolis Center
Mon 08:37:00 PM 40.5806 -94.5489 79° East 501 577 35,000  Level Minneapolis Center
Mon 08:38:02 PM 40.6083 -94.3450 80° East 501 577 35,000  Level Minneapolis Center
Mon 08:39:04 PM 40.6325 -94.1669 80° East 500 575 35,000  Level Minneapolis Center
Mon 08:40:06 PM 40.6544 -93.9875 81° East 500 575 35,000  Level Minneapolis Center
Mon 08:41:07 PM 40.6781 -93.8097 80° East 498 573 35,000  Level Minneapolis Center
Mon 08:42:09 PM 40.7033 -93.6311 79° East 498 573 35,000  Level Minneapolis Center
Mon 08:43:11 PM 40.7264 -93.4547 80° East 494 568 35,000  Level Minneapolis Center
Mon 08:44:13 PM 40.7533 -93.2428 80° East 492 566 35,000  Level Minneapolis Center
Mon 08:45:14 PM 40.7753 -93.0686 80° East 487 560 35,000  Level Minneapolis Center
Mon 08:46:16 PM 40.7975 -92.8933 80° East 484 557 35,000  Level Minneapolis Center
Mon 08:47:04 PM 40.8142 -92.7542 81° East 479 551 35,000 -165 Level Chicago Center
Mon 08:48:05 PM 40.8353 -92.5842 81° East 471 542 34,700 -585 Descending Chicago Center
Mon 08:49:07 PM 40.8558 -92.4136 81° East 470 541 33,800 -871 Descending Chicago Center
Mon 08:50:09 PM 40.8764 -92.2436 81° East 470 541 32,900 -927 Descending Chicago Center
Mon 08:51:10 PM 40.8961 -92.0756 81° East 465 535 31,900 -780 Descending Chicago Center
Mon 08:52:12 PM 40.9194 -91.8725 81° East 468 539 31,300 -484 Descending Chicago Center
Mon 08:53:14 PM 40.9389 -91.6981 82° East 478 550 30,900 -435 Descending Chicago Center
Mon 08:54:16 PM 40.9586 -91.5244 81° East 480 552 30,400 -488 Descending Chicago Center
Mon 08:55:17 PM 40.9786 -91.3536 81° East 476 548 29,900 -488 Descending Chicago Center
Mon 08:56:19 PM 40.9986 -91.1828 81° East 475 547 29,400 -823 Descending Chicago Center
Mon 08:57:21 PM 41.0164 -91.0122 82° East 471 542 28,200 -1,659 Descending Chicago Center
Mon 08:58:22 PM 41.0344 -90.8464 82° East 461 531 26,000 -2,032 Descending Chicago Center
Mon 08:59:25 PM 41.0536 -90.6611 82° East 425 489 24,000 -1,392 Descending Chicago Center
Mon 09:00:27 PM 41.0694 -90.5186 82° East 395 455 23,100 -488 Descending Chicago Center
Mon 09:01:28 PM 41.0839 -90.3636 83° East 420 483 23,000 -49 Descending Chicago Center
Mon 09:02:30 PM 41.0986 -90.2100 83° East 418 481 23,000 -532 Level Chicago Center
Mon 09:03:32 PM 41.1136 -90.0572 83° East 415 478 21,900 -1,610 Descending Chicago Center
Mon 09:04:33 PM 41.1294 -89.9056 82° East 414 476 19,700 -2,049 Descending Chicago Center
Mon 09:05:35 PM 41.1442 -89.7608 82° East 398 458 17,700 -2,098 Descending Chicago Center
Mon 09:06:36 PM 41.1575 -89.6214 83° East 384 442 15,400 -2,049 Descending Chicago Center
Mon 09:07:38 PM 41.1675 -89.4853 84° East 374 430 13,500 -1,935 Descending Chicago Center
Mon 09:08:40 PM 41.1756 -89.3586 85° East 348 400 11,400 -1,756 Descending Chicago Center
Mon 09:09:41 PM 41.1864 -89.2064 85° East 345 397 9,900 -732 Descending Chicago Center
Mon 09:10:43 PM 41.1942 -89.0767 85° East 341 392 9,900 48 Level Chicago Center
Mon 09:11:45 PM 41.2022 -88.9589 85° East 329 379 10,000 49 Climbing Chicago Center
Mon 09:12:46 PM 41.2100 -88.8367 85° East 333 383 10,000  Level Chicago Center
Mon 09:13:48 PM 41.2158 -88.7122 86° East 340 391 10,000 -244 Level Chicago Center
Mon 09:14:49 PM 41.2731 -88.6236 49° Northeast 322 371 9,500 -1,171 Descending Chicago Center
Mon 09:15:51 PM 41.3403 -88.5492 40° Northeast 314 361 7,600 -1,597 Descending Chicago Center
Mon 09:16:53 PM 41.4067 -88.4756 40° Northeast 313 360 6,200 -780 Descending Chicago Center
Mon 09:17:54 PM 41.4811 -88.3914 40° Northeast 302 348 6,000 -146 Descending Chicago Center
Mon 09:18:56 PM 41.5447 -88.3192 40° Northeast 300 345 5,900 -194 Descending Chicago Center
Mon 09:19:58 PM 41.6047 -88.2458 42° Northeast 294 338 5,600 -829 Descending Chicago Center
Mon 09:20:59 PM 41.6381 -88.1536 64° Northeast 284 327 4,200 -829 Descending Chicago Center
Mon 09:22:01 PM 41.6694 -88.0692 64° Northeast 267 307 3,900 -629 Descending Chicago Center
Mon 09:23:03 PM 41.7056 -87.9958 57° Northeast 250 288 2,900 -780 Descending Chicago Center
Mon 09:24:04 PM 41.7500 -87.9342 46° Northeast 239 275 2,300 -488 Descending Chicago Center
Mon 09:25:06 PM 41.7864 -87.8831 46° Northeast 215 247 1,900 -242 Descending Chicago Center
Mon 09:26:08 PM 41.8164 -87.8228 56° Northeast 180 207 1,800 -435 Descending Chicago Center
Mon 09:27:10 PM 41.8061 -87.7806 108° East 144 166 1,000 -390 Descending Chicago Center
Mon 09:28:11 PM 41.7850 -87.7481 131° Southeast 139 160 1,000  Level Chicago Center

Login

Don't have an account? Register now (free) for customized features, flight alerts, and more!